sensor_id;sensor_type;location;lat;lon;timestamp;P1;durP1;ratioP1;P2;durP2;ratioP2
79779;SDS011;69258;52.050;10.334;2023-11-19T00:08:12;1.37;;;1.20;;
79779;SDS011;69258;52.050;10.334;2023-11-19T00:23:14;2.37;;;1.10;;
79779;SDS011;69258;52.050;10.334;2023-11-19T00:38:16;0.90;;;0.90;;
79779;SDS011;69258;52.050;10.334;2023-11-19T00:53:19;2.07;;;1.10;;
79779;SDS011;69258;52.050;10.334;2023-11-19T01:08:22;0.97;;;0.93;;
79779;SDS011;69258;52.050;10.334;2023-11-19T01:23:23;1.17;;;1.00;;
79779;SDS011;69258;52.050;10.334;2023-11-19T01:38:25;1.07;;;0.97;;
79779;SDS011;69258;52.050;10.334;2023-11-19T01:53:28;1.90;;;0.90;;
79779;SDS011;69258;52.050;10.334;2023-11-19T02:08:31;1.60;;;1.13;;
79779;SDS011;69258;52.050;10.334;2023-11-19T02:23:33;1.67;;;1.00;;
79779;SDS011;69258;52.050;10.334;2023-11-19T02:38:35;1.10;;;1.00;;
79779;SDS011;69258;52.050;10.334;2023-11-19T02:53:38;1.10;;;1.00;;
79779;SDS011;69258;52.050;10.334;2023-11-19T03:08:41;1.53;;;0.90;;
79779;SDS011;69258;52.050;10.334;2023-11-19T03:23:44;3.07;;;0.90;;
79779;SDS011;69258;52.050;10.334;2023-11-19T03:38:46;0.93;;;0.70;;
79779;SDS011;69258;52.050;10.334;2023-11-19T03:53:49;0.80;;;0.80;;
79779;SDS011;69258;52.050;10.334;2023-11-19T04:08:51;0.63;;;0.63;;
79779;SDS011;69258;52.050;10.334;2023-11-19T04:23:54;0.50;;;0.50;;
79779;SDS011;69258;52.050;10.334;2023-11-19T04:38:56;0.70;;;0.70;;
79779;SDS011;69258;52.050;10.334;2023-11-19T04:53:59;0.50;;;0.50;;
79779;SDS011;69258;52.050;10.334;2023-11-19T05:09:02;0.70;;;0.70;;
79779;SDS011;69258;52.050;10.334;2023-11-19T05:24:07;0.50;;;0.50;;
79779;SDS011;69258;52.050;10.334;2023-11-19T05:39:09;0.60;;;0.60;;
79779;SDS011;69258;52.050;10.334;2023-11-19T05:54:11;0.60;;;0.60;;
79779;SDS011;69258;52.050;10.334;2023-11-19T06:09:14;0.53;;;0.50;;
79779;SDS011;69258;52.050;10.334;2023-11-19T06:24:16;2.13;;;0.53;;
79779;SDS011;69258;52.050;10.334;2023-11-19T06:39:21;0.77;;;0.60;;
79779;SDS011;69258;52.050;10.334;2023-11-19T06:54:24;2.57;;;0.80;;
79779;SDS011;69258;52.050;10.334;2023-11-19T07:09:26;3.13;;;1.30;;
79779;SDS011;69258;52.050;10.334;2023-11-19T07:24:29;3.63;;;0.80;;
79779;SDS011;69258;52.050;10.334;2023-11-19T07:39:32;5.83;;;1.60;;
79779;SDS011;69258;52.050;10.334;2023-11-19T07:54:34;3.83;;;1.73;;
79779;SDS011;69258;52.050;10.334;2023-11-19T08:09:37;2.30;;;1.40;;
79779;SDS011;69258;52.050;10.334;2023-11-19T08:24:39;2.00;;;1.10;;
79779;SDS011;69258;52.050;10.334;2023-11-19T08:39:41;3.07;;;1.30;;
79779;SDS011;69258;52.050;10.334;2023-11-19T08:54:44;2.40;;;1.23;;
79779;SDS011;69258;52.050;10.334;2023-11-19T09:09:46;2.40;;;1.30;;
79779;SDS011;69258;52.050;10.334;2023-11-19T09:24:48;11.77;;;1.63;;
79779;SDS011;69258;52.050;10.334;2023-11-19T09:39:51;4.10;;;1.30;;
79779;SDS011;69258;52.050;10.334;2023-11-19T09:54:52;7.60;;;1.80;;
79779;SDS011;69258;52.050;10.334;2023-11-19T10:09:55;6.13;;;1.53;;
79779;SDS011;69258;52.050;10.334;2023-11-19T10:24:57;8.07;;;1.63;;
79779;SDS011;69258;52.050;10.334;2023-11-19T10:40:00;5.37;;;1.60;;
79779;SDS011;69258;52.050;10.334;2023-11-19T10:55:03;5.07;;;1.80;;
79779;SDS011;69258;52.050;10.334;2023-11-19T11:10:10;6.67;;;1.87;;
79779;SDS011;69258;52.050;10.334;2023-11-19T11:25:19;17.10;;;4.07;;
79779;SDS011;69258;52.050;10.334;2023-11-19T11:40:36;10.33;;;2.93;;
79779;SDS011;69258;52.050;10.334;2023-11-19T11:55:51;10.87;;;2.80;;
79779;SDS011;69258;52.050;10.334;2023-11-19T12:10:57;9.10;;;2.90;;
79779;SDS011;69258;52.050;10.334;2023-11-19T12:25:59;7.47;;;2.60;;
79779;SDS011;69258;52.050;10.334;2023-11-19T12:41:08;9.50;;;2.63;;
79779;SDS011;69258;52.050;10.334;2023-11-19T12:56:12;6.40;;;2.50;;
79779;SDS011;69258;52.050;10.334;2023-11-19T13:11:15;9.43;;;2.73;;
79779;SDS011;69258;52.050;10.334;2023-11-19T13:26:36;7.60;;;2.20;;
79779;SDS011;69258;52.050;10.334;2023-11-19T13:41:38;6.10;;;2.63;;
79779;SDS011;69258;52.050;10.334;2023-11-19T13:56:41;8.30;;;2.53;;
79779;SDS011;69258;52.050;10.334;2023-11-19T14:11:43;6.47;;;2.50;;
79779;SDS011;69258;52.050;10.334;2023-11-19T14:26:46;6.17;;;2.37;;
79779;SDS011;69258;52.050;10.334;2023-11-19T14:41:49;5.53;;;2.10;;
79779;SDS011;69258;52.050;10.334;2023-11-19T14:56:54;5.07;;;2.20;;
79779;SDS011;69258;52.050;10.334;2023-11-19T15:11:58;3.20;;;1.80;;
79779;SDS011;69258;52.050;10.334;2023-11-19T15:27:02;3.93;;;2.00;;
79779;SDS011;69258;52.050;10.334;2023-11-19T15:42:08;4.53;;;2.00;;
79779;SDS011;69258;52.050;10.334;2023-11-19T15:57:10;3.23;;;1.77;;
79779;SDS011;69258;52.050;10.334;2023-11-19T16:12:12;4.30;;;1.90;;
79779;SDS011;69258;52.050;10.334;2023-11-19T16:27:14;5.07;;;2.13;;
79779;SDS011;69258;52.050;10.334;2023-11-19T16:42:19;3.67;;;2.00;;
79779;SDS011;69258;52.050;10.334;2023-11-19T16:57:21;4.57;;;1.80;;
79779;SDS011;69258;52.050;10.334;2023-11-19T17:12:23;3.47;;;1.70;;
79779;SDS011;69258;52.050;10.334;2023-11-19T17:27:27;4.33;;;1.73;;
79779;SDS011;69258;52.050;10.334;2023-11-19T17:42:29;8.47;;;2.17;;
79779;SDS011;69258;52.050;10.334;2023-11-19T17:57:32;5.87;;;2.37;;
79779;SDS011;69258;52.050;10.334;2023-11-19T18:12:34;4.87;;;1.97;;
79779;SDS011;69258;52.050;10.334;2023-11-19T18:27:38;4.00;;;2.00;;
79779;SDS011;69258;52.050;10.334;2023-11-19T18:42:42;4.17;;;1.80;;
79779;SDS011;69258;52.050;10.334;2023-11-19T18:57:45;5.23;;;1.70;;
79779;SDS011;69258;52.050;10.334;2023-11-19T19:12:47;6.43;;;1.80;;
79779;SDS011;69258;52.050;10.334;2023-11-19T19:27:48;4.20;;;1.80;;
79779;SDS011;69258;52.050;10.334;2023-11-19T19:43:11;5.97;;;2.20;;
79779;SDS011;69258;52.050;10.334;2023-11-19T19:58:15;4.87;;;1.70;;
79779;SDS011;69258;52.050;10.334;2023-11-19T20:13:18;3.20;;;1.50;;
79779;SDS011;69258;52.050;10.334;2023-11-19T20:28:20;4.20;;;1.70;;
79779;SDS011;69258;52.050;10.334;2023-11-19T20:43:23;3.07;;;1.73;;
79779;SDS011;69258;52.050;10.334;2023-11-19T20:58:26;3.03;;;1.50;;
79779;SDS011;69258;52.050;10.334;2023-11-19T21:13:30;2.50;;;1.43;;
79779;SDS011;69258;52.050;10.334;2023-11-19T21:28:32;7.67;;;1.63;;
79779;SDS011;69258;52.050;10.334;2023-11-19T21:43:35;3.37;;;1.67;;
79779;SDS011;69258;52.050;10.334;2023-11-19T21:58:37;3.93;;;1.60;;
79779;SDS011;69258;52.050;10.334;2023-11-19T22:13:40;5.17;;;1.57;;
79779;SDS011;69258;52.050;10.334;2023-11-19T22:28:42;4.70;;;1.40;;
79779;SDS011;69258;52.050;10.334;2023-11-19T22:43:45;2.97;;;1.60;;
79779;SDS011;69258;52.050;10.334;2023-11-19T22:58:46;3.33;;;1.60;;
79779;SDS011;69258;52.050;10.334;2023-11-19T23:13:49;2.73;;;1.63;;
79779;SDS011;69258;52.050;10.334;2023-11-19T23:28:51;1.73;;;1.30;;
79779;SDS011;69258;52.050;10.334;2023-11-19T23:44:08;2.93;;;1.23;;
79779;SDS011;69258;52.050;10.334;2023-11-19T23:59:10;1.20;;;1.10;;
